createdAt,value
2022-11-08T00:00:00.449Z,5.00
2022-11-08T00:02:28.296Z,2.63
2022-11-08T00:04:56.084Z,4.60
2022-11-08T00:07:41.239Z,5.20
2022-11-08T00:10:28.457Z,3.60
2022-11-08T00:13:15.145Z,2.83
2022-11-08T00:15:42.860Z,5.50
2022-11-08T00:18:10.607Z,5.50
2022-11-08T00:20:38.340Z,2.67
2022-11-08T00:23:08.491Z,5.47
2022-11-08T00:25:36.210Z,5.80
2022-11-08T00:28:05.525Z,4.00
2022-11-08T00:30:33.263Z,7.43
2022-11-08T00:33:00.945Z,3.17
2022-11-08T00:35:28.687Z,6.57
2022-11-08T00:37:56.407Z,3.97
2022-11-08T00:40:24.135Z,3.93
2022-11-08T00:42:51.899Z,5.03
2022-11-08T00:45:21.031Z,3.63
2022-11-08T00:47:48.780Z,3.87
2022-11-08T00:50:16.562Z,6.03
2022-11-08T00:52:44.293Z,5.70
2022-11-08T00:55:12.008Z,6.30
2022-11-08T00:57:58.384Z,5.70
2022-11-08T01:00:28.639Z,5.27
2022-11-08T01:03:10.321Z,7.30
2022-11-08T01:05:38.293Z,3.13
2022-11-08T01:08:06.176Z,5.97
2022-11-08T01:10:33.943Z,4.67
2022-11-08T01:13:01.691Z,4.57
2022-11-08T01:15:35.750Z,3.50
2022-11-08T01:18:03.548Z,3.57
2022-11-08T01:20:31.328Z,3.60
2022-11-08T01:22:59.198Z,5.00
2022-11-08T01:25:27.017Z,5.60
2022-11-08T01:27:54.729Z,3.90
2022-11-08T01:30:22.678Z,5.43
2022-11-08T01:32:51.905Z,5.63
2022-11-08T01:35:19.686Z,5.40
2022-11-08T01:37:47.395Z,9.70
2022-11-08T01:40:15.135Z,6.73
2022-11-08T01:42:43.104Z,5.67
2022-11-08T01:45:12.732Z,6.87
2022-11-08T01:47:40.512Z,3.33
2022-11-08T01:50:13.917Z,6.33
2022-11-08T01:52:44.590Z,4.97
2022-11-08T01:55:17.576Z,6.83
2022-11-08T01:57:50.297Z,4.00
2022-11-08T02:00:18.867Z,3.97
2022-11-08T02:02:50.864Z,4.57
2022-11-08T02:05:26.929Z,6.27
2022-11-08T02:07:57.801Z,5.13
2022-11-08T02:10:30.732Z,3.60
2022-11-08T02:13:02.541Z,6.67
2022-11-08T02:15:32.714Z,5.67
2022-11-08T02:18:00.852Z,6.33
2022-11-08T02:20:30.297Z,3.47
2022-11-08T02:23:06.133Z,4.30
2022-11-08T02:25:35.485Z,5.27
2022-11-08T02:28:03.369Z,6.37
2022-11-08T02:30:34.431Z,6.83
2022-11-08T02:33:02.276Z,4.47
2022-11-08T02:35:30.221Z,6.40
2022-11-08T02:37:57.976Z,6.03
2022-11-08T02:40:25.679Z,5.90
2022-11-08T02:42:54.764Z,4.77
2022-11-08T02:45:22.512Z,3.17
2022-11-08T02:47:50.247Z,2.47
2022-11-08T02:50:18.091Z,6.03
2022-11-08T02:52:45.789Z,9.00
2022-11-08T02:55:13.557Z,7.17
2022-11-08T02:57:41.283Z,5.87
2022-11-08T03:00:12.358Z,6.77
2022-11-08T03:02:40.148Z,4.73
2022-11-08T03:05:08.504Z,6.63
2022-11-08T03:07:36.343Z,5.70
2022-11-08T03:10:04.500Z,8.53
2022-11-08T03:12:32.268Z,7.37
2022-11-08T03:14:59.997Z,4.47
2022-11-08T03:17:29.145Z,4.43
2022-11-08T03:19:57.063Z,4.60
2022-11-08T03:22:24.806Z,4.93
2022-11-08T03:24:52.570Z,7.43
2022-11-08T03:27:20.759Z,5.20
2022-11-08T03:29:48.683Z,6.80
2022-11-08T03:32:17.396Z,5.30
2022-11-08T03:34:46.515Z,7.43
2022-11-08T03:37:14.230Z,7.67
2022-11-08T03:39:42.007Z,5.00
2022-11-08T03:42:09.825Z,6.20
2022-11-08T03:44:37.567Z,5.90
2022-11-08T03:47:05.429Z,5.23
2022-11-08T03:49:33.117Z,6.50
2022-11-08T03:52:02.427Z,8.30
2022-11-08T03:54:30.136Z,4.47
2022-11-08T03:56:57.846Z,6.13
2022-11-08T03:59:25.592Z,6.30
2022-11-08T04:01:53.702Z,3.80
2022-11-08T04:04:21.661Z,4.90
2022-11-08T04:06:49.358Z,4.07
2022-11-08T04:09:21.431Z,4.07
2022-11-08T04:12:06.588Z,4.67
2022-11-08T04:14:52.046Z,4.80
2022-11-08T04:17:19.755Z,6.30
2022-11-08T04:20:05.042Z,3.57
2022-11-08T04:22:32.796Z,5.70
2022-11-08T04:25:01.884Z,5.03
2022-11-08T04:27:29.627Z,5.50
2022-11-08T04:29:57.346Z,6.33
2022-11-08T04:32:25.523Z,5.57
2022-11-08T04:34:53.332Z,5.27
2022-11-08T04:37:21.051Z,6.67
2022-11-08T04:39:48.831Z,4.07
2022-11-08T04:42:17.919Z,6.07
2022-11-08T04:44:45.653Z,6.37
2022-11-08T04:47:13.388Z,3.97
2022-11-08T04:49:41.102Z,4.73
2022-11-08T04:52:08.840Z,6.60
2022-11-08T04:54:36.542Z,5.23
2022-11-08T04:57:04.334Z,5.23
2022-11-08T04:59:33.420Z,6.00
2022-11-08T05:02:01.582Z,6.63
2022-11-08T05:04:29.401Z,5.43
2022-11-08T05:06:57.163Z,4.07
2022-11-08T05:09:24.858Z,6.47
2022-11-08T05:11:52.622Z,6.30
2022-11-08T05:14:20.686Z,4.27
2022-11-08T05:16:49.820Z,4.40
2022-11-08T05:19:38.076Z,3.57
2022-11-08T05:22:23.144Z,3.40
2022-11-08T05:24:50.942Z,5.00
2022-11-08T05:27:18.730Z,6.23
2022-11-08T05:29:46.538Z,6.83
2022-11-08T05:32:15.615Z,3.03
2022-11-08T05:34:43.320Z,3.00
2022-11-08T05:37:11.499Z,6.43
2022-11-08T05:39:39.225Z,4.73
2022-11-08T05:42:07.156Z,4.70
2022-11-08T05:44:35.024Z,7.97
2022-11-08T05:47:02.716Z,5.13
2022-11-08T05:49:31.878Z,7.70
2022-11-08T05:52:00.190Z,3.97
2022-11-08T05:54:27.940Z,8.13
2022-11-08T05:56:55.645Z,3.53
2022-11-08T05:59:23.653Z,6.03
2022-11-08T06:01:51.517Z,7.17
2022-11-08T06:04:19.314Z,3.80
2022-11-08T06:06:50.793Z,6.77
2022-11-08T06:09:18.607Z,3.60
2022-11-08T06:11:46.721Z,5.87
2022-11-08T06:14:14.466Z,5.77
2022-11-08T06:16:42.159Z,7.83
2022-11-08T06:19:09.930Z,6.27
2022-11-08T06:21:37.750Z,5.83
2022-11-08T06:24:07.859Z,6.00
2022-11-08T06:26:35.816Z,9.13
2022-11-08T06:29:03.607Z,8.20
2022-11-08T06:31:31.403Z,14.40
2022-11-08T06:33:59.123Z,7.47
2022-11-08T06:36:26.867Z,11.07
2022-11-08T06:38:55.459Z,7.20
2022-11-08T06:41:24.711Z,9.57
2022-11-08T06:43:52.398Z,8.10
2022-11-08T06:46:20.090Z,7.80
2022-11-08T06:48:48.102Z,9.33
2022-11-08T06:51:16.000Z,7.23
2022-11-08T06:53:43.992Z,6.17
2022-11-08T06:56:11.830Z,7.90
2022-11-08T06:58:41.020Z,6.07
2022-11-08T07:01:10.472Z,9.57
2022-11-08T07:03:38.391Z,6.83
2022-11-08T07:06:07.235Z,5.40
2022-11-08T07:08:36.166Z,6.33
2022-11-08T07:11:04.655Z,8.17
2022-11-08T07:13:32.410Z,6.60
2022-11-08T07:16:02.312Z,4.57
2022-11-08T07:18:30.194Z,4.93
2022-11-08T07:21:01.566Z,9.77
2022-11-08T07:23:29.492Z,7.20
2022-11-08T07:25:57.296Z,7.30
2022-11-08T07:28:25.029Z,5.50
2022-11-08T07:30:58.086Z,3.97
2022-11-08T07:33:27.240Z,6.03
2022-11-08T07:35:55.101Z,5.30
2022-11-08T07:38:23.521Z,6.70
2022-11-08T07:40:51.528Z,6.37
2022-11-08T07:43:19.261Z,5.30
2022-11-08T07:45:48.190Z,8.33
2022-11-08T07:48:15.903Z,6.47
2022-11-08T07:50:47.178Z,8.33
2022-11-08T07:53:15.062Z,7.37
2022-11-08T07:55:43.036Z,6.60
2022-11-08T07:58:12.305Z,4.03
2022-11-08T08:00:42.704Z,6.47
2022-11-08T08:03:13.079Z,8.00
2022-11-08T08:05:45.268Z,5.13
2022-11-08T08:08:14.799Z,8.80
2022-11-08T08:10:42.694Z,10.20
2022-11-08T08:13:10.691Z,5.73
2022-11-08T08:15:38.444Z,6.23
2022-11-08T08:18:07.905Z,4.53
2022-11-08T08:20:36.074Z,4.87
2022-11-08T08:23:03.899Z,4.77
2022-11-08T08:25:32.998Z,8.10
2022-11-08T08:28:02.057Z,6.83
2022-11-08T08:30:31.660Z,5.50
2022-11-08T08:35:54.306Z,5.00
2022-11-08T08:38:22.465Z,5.90
2022-11-08T08:40:52.594Z,2.90
2022-11-08T08:43:20.857Z,5.50
2022-11-08T08:45:49.923Z,4.80
2022-11-08T08:48:18.278Z,6.27
2022-11-08T08:50:46.000Z,4.20
2022-11-08T08:53:14.215Z,6.13
2022-11-08T08:55:42.861Z,4.57
2022-11-08T08:58:12.770Z,3.07
2022-11-08T09:03:28.313Z,4.17
2022-11-08T09:05:58.255Z,5.27
2022-11-08T09:08:26.092Z,9.97
2022-11-08T09:10:54.871Z,2.77
2022-11-08T09:13:26.169Z,2.60
2022-11-08T09:15:54.239Z,4.57
2022-11-08T09:18:22.461Z,3.27
2022-11-08T09:20:51.146Z,3.30
2022-11-08T09:23:19.116Z,5.97
2022-11-08T09:25:47.012Z,4.47
2022-11-08T09:28:14.760Z,3.03
2022-11-08T09:30:43.861Z,6.27
2022-11-08T09:33:11.580Z,4.17
2022-11-08T09:35:39.849Z,5.53
2022-11-08T09:38:08.422Z,2.20
2022-11-08T09:40:40.853Z,4.73
2022-11-08T09:43:25.061Z,4.33
2022-11-08T09:45:56.086Z,5.53
2022-11-08T09:48:28.537Z,2.17
2022-11-08T09:50:58.425Z,4.40
2022-11-08T09:53:34.794Z,3.17
2022-11-08T09:56:07.181Z,7.43
2022-11-08T09:58:37.438Z,2.77
2022-11-08T10:01:06.662Z,3.80
2022-11-08T10:03:34.725Z,4.40
2022-11-08T10:06:40.066Z,2.50
2022-11-08T10:09:22.224Z,4.17
2022-11-08T10:12:10.647Z,2.33
2022-11-08T10:14:53.773Z,3.03
2022-11-08T10:17:55.680Z,2.37
2022-11-08T10:20:35.565Z,5.27
2022-11-08T10:23:13.402Z,2.90
2022-11-08T10:25:46.145Z,3.20
2022-11-08T10:28:16.631Z,2.43
2022-11-08T10:30:49.448Z,3.13
2022-11-08T10:33:21.697Z,4.23
2022-11-08T10:36:01.898Z,3.13
2022-11-08T10:38:36.960Z,4.97
2022-11-08T10:41:11.273Z,1.23
2022-11-08T10:43:42.989Z,1.37
2022-11-08T10:46:24.104Z,3.00
2022-11-08T10:48:53.376Z,2.50
2022-11-08T10:51:21.108Z,1.40
2022-11-08T10:53:48.805Z,3.30
2022-11-08T10:56:16.808Z,2.30
2022-11-08T10:58:44.768Z,3.37
2022-11-08T11:01:17.110Z,2.73
2022-11-08T11:03:45.393Z,1.33
2022-11-08T11:06:27.392Z,2.00
2022-11-08T11:08:57.125Z,2.27
2022-11-08T11:11:28.253Z,2.87
2022-11-08T11:14:16.458Z,2.30
2022-11-08T11:16:55.502Z,1.53
2022-11-08T11:19:24.489Z,1.93
2022-11-08T11:21:57.590Z,1.10
2022-11-08T11:24:25.986Z,2.37
2022-11-08T11:27:05.922Z,1.57
2022-11-08T11:29:34.829Z,2.57
2022-11-08T11:32:24.599Z,3.20
2022-11-08T11:34:55.920Z,1.47
2022-11-08T11:37:31.627Z,1.90
2022-11-08T11:40:07.466Z,2.33
2022-11-08T11:42:46.194Z,2.17
2022-11-08T11:45:20.046Z,2.73
2022-11-08T11:47:53.228Z,1.20
2022-11-08T11:50:30.155Z,3.03
2022-11-08T11:53:00.983Z,1.90
2022-11-08T11:55:44.292Z,2.33
2022-11-08T11:58:25.471Z,2.67
2022-11-08T12:00:59.109Z,6.80
2022-11-08T12:03:47.431Z,4.80
2022-11-08T12:06:37.276Z,1.57
2022-11-08T12:09:20.861Z,2.43
2022-11-08T12:11:59.850Z,1.67
2022-11-08T12:14:56.051Z,2.20
2022-11-08T12:17:46.822Z,2.23
2022-11-08T12:20:31.829Z,5.47
2022-11-08T12:23:12.258Z,1.47
2022-11-08T12:25:49.363Z,1.73
2022-11-08T12:28:39.823Z,1.70
2022-11-08T12:31:20.018Z,3.53
2022-11-08T12:34:00.874Z,1.97
2022-11-08T12:36:37.483Z,1.50
2022-11-08T12:39:16.988Z,1.43
2022-11-08T12:42:00.820Z,3.87
2022-11-08T12:44:45.069Z,1.83
2022-11-08T12:47:24.914Z,3.20
2022-11-08T12:50:04.204Z,1.60
2022-11-08T12:52:48.014Z,1.23
2022-11-08T12:55:24.844Z,2.47
2022-11-08T12:57:57.240Z,2.87
2022-11-08T13:00:27.418Z,2.50
2022-11-08T13:03:03.194Z,1.57
2022-11-08T13:05:34.831Z,3.33
2022-11-08T13:08:08.174Z,2.17
2022-11-08T13:10:47.605Z,1.03
2022-11-08T13:13:32.359Z,1.97
2022-11-08T13:16:15.886Z,3.50
2022-11-08T13:18:49.050Z,1.53
2022-11-08T13:21:37.906Z,1.87
2022-11-08T13:24:45.464Z,1.87
2022-11-08T13:27:41.052Z,1.53
2022-11-08T13:30:35.133Z,3.03
2022-11-08T13:33:14.354Z,1.33
2022-11-08T13:35:50.147Z,2.37
2022-11-08T13:38:29.149Z,2.23
2022-11-08T13:41:14.429Z,1.33
2022-11-08T13:43:42.659Z,2.03
2022-11-08T13:46:49.501Z,2.40
2022-11-08T13:49:19.893Z,2.20
2022-11-08T13:51:48.337Z,1.73
2022-11-08T13:54:46.932Z,2.57
2022-11-08T13:57:20.048Z,1.43
2022-11-08T13:59:57.445Z,2.10
2022-11-08T14:02:47.235Z,2.23
2022-11-08T14:05:32.445Z,2.70
2022-11-08T14:08:27.841Z,3.03
2022-11-08T14:11:23.260Z,1.83
2022-11-08T14:14:24.856Z,1.97
2022-11-08T14:17:10.922Z,1.70
2022-11-08T14:19:42.067Z,2.03
2022-11-08T14:22:18.323Z,1.83
2022-11-08T14:24:47.021Z,1.97
2022-11-08T14:27:15.617Z,2.47
2022-11-08T14:29:43.613Z,3.37
2022-11-08T14:32:18.804Z,6.00
2022-11-08T14:34:48.386Z,2.27
2022-11-08T14:37:22.774Z,3.67
2022-11-08T14:39:51.823Z,3.43
2022-11-08T14:42:23.353Z,3.40
2022-11-08T14:44:54.013Z,3.63
2022-11-08T14:47:27.360Z,4.83
2022-11-08T14:49:56.580Z,3.93
2022-11-08T14:52:29.553Z,2.40
2022-11-08T14:55:05.480Z,1.93
2022-11-08T14:57:36.460Z,4.77
2022-11-08T15:00:11.008Z,3.50
2022-11-08T15:02:39.354Z,2.53
2022-11-08T15:05:30.390Z,5.20
2022-11-08T15:07:59.460Z,3.37
2022-11-08T15:10:28.509Z,1.83
2022-11-08T15:12:57.295Z,2.63
2022-11-08T15:15:27.687Z,6.40
2022-11-08T15:18:26.073Z,2.80
2022-11-08T15:20:57.278Z,3.90
2022-11-08T15:23:27.332Z,1.97
2022-11-08T15:26:00.267Z,5.50
2022-11-08T15:28:33.829Z,2.40
2022-11-08T15:31:04.037Z,3.17
2022-11-08T15:33:36.151Z,2.47
2022-11-08T15:36:13.327Z,4.40
2022-11-08T15:38:42.802Z,2.70
2022-11-08T15:41:31.372Z,1.83
2022-11-08T15:44:13.737Z,1.00
2022-11-08T15:46:41.799Z,3.53
2022-11-08T15:49:19.113Z,2.13
2022-11-08T15:51:48.911Z,1.43
2022-11-08T15:54:17.066Z,1.23
2022-11-08T15:56:45.366Z,4.00
2022-11-08T15:59:21.302Z,1.00
2022-11-08T16:01:56.161Z,1.80
2022-11-08T16:04:24.222Z,2.37
2022-11-08T16:06:53.444Z,3.63
2022-11-08T16:09:21.373Z,2.53
2022-11-08T16:11:49.465Z,1.33
2022-11-08T16:14:20.921Z,1.47
2022-11-08T16:16:48.647Z,3.33
2022-11-08T16:19:21.385Z,2.43
2022-11-08T16:21:49.223Z,2.70
2022-11-08T16:24:18.846Z,3.00
2022-11-08T16:26:47.797Z,2.50
2022-11-08T16:29:21.718Z,2.40
2022-11-08T16:31:50.538Z,1.73
2022-11-08T16:34:18.343Z,1.57
2022-11-08T16:36:47.704Z,2.40
2022-11-08T16:39:18.605Z,5.33
2022-11-08T16:41:46.728Z,3.80
2022-11-08T16:44:14.583Z,2.70
2022-11-08T16:46:42.399Z,2.77
2022-11-08T16:49:20.917Z,3.40
2022-11-08T16:51:49.091Z,2.63
2022-11-08T16:54:19.847Z,6.27
2022-11-08T16:56:47.611Z,1.80
2022-11-08T16:59:15.716Z,2.00
2022-11-08T17:01:44.267Z,2.97
2022-11-08T17:04:12.063Z,4.00
2022-11-08T17:06:39.852Z,3.03
2022-11-08T17:09:07.766Z,2.37
2022-11-08T17:11:38.105Z,1.97
2022-11-08T17:14:05.811Z,2.00
2022-11-08T17:16:33.723Z,3.43
2022-11-08T17:19:01.468Z,4.13
2022-11-08T17:21:45.790Z,1.40
2022-11-08T17:24:20.864Z,2.43
2022-11-08T17:26:51.187Z,3.50
2022-11-08T17:29:18.946Z,2.77
2022-11-08T17:31:46.769Z,1.83
2022-11-08T17:34:14.548Z,3.30
2022-11-08T17:36:42.493Z,1.90
2022-11-08T17:39:13.983Z,2.80
2022-11-08T17:41:41.830Z,3.17
2022-11-08T17:44:10.944Z,3.73
2022-11-08T17:46:38.715Z,2.17
2022-11-08T17:49:06.437Z,2.70
2022-11-08T17:51:34.166Z,2.10
2022-11-08T17:54:01.925Z,2.17
2022-11-08T17:56:29.688Z,2.90
2022-11-08T17:58:57.429Z,3.57
2022-11-08T18:01:26.650Z,4.57
2022-11-08T18:03:54.647Z,4.63
2022-11-08T18:06:22.403Z,1.33
2022-11-08T18:08:50.123Z,2.60
2022-11-08T18:11:17.867Z,2.13
2022-11-08T18:13:45.629Z,1.33
2022-11-08T18:16:15.364Z,3.10
2022-11-08T18:18:45.783Z,6.10
2022-11-08T18:21:13.799Z,2.87
2022-11-08T18:23:42.106Z,2.77
2022-11-08T18:26:10.252Z,1.90
2022-11-08T18:28:38.853Z,3.43
2022-11-08T18:31:07.987Z,1.80
2022-11-08T18:33:36.962Z,6.03
2022-11-08T18:36:07.618Z,1.87
2022-11-08T18:38:38.954Z,1.90
2022-11-08T18:41:07.461Z,2.93
2022-11-08T18:43:35.481Z,2.37
2022-11-08T18:46:04.819Z,2.57
2022-11-08T18:48:35.557Z,3.30
2022-11-08T18:51:03.408Z,2.93
2022-11-08T18:53:32.864Z,2.00
2022-11-08T18:56:00.693Z,2.00
2022-11-08T18:58:28.563Z,3.63
2022-11-08T19:00:57.648Z,2.33
2022-11-08T19:03:26.317Z,2.50
2022-11-08T19:05:54.561Z,3.53
2022-11-08T19:08:25.098Z,3.47
2022-11-08T19:10:55.876Z,3.50
2022-11-08T19:13:25.727Z,2.77
2022-11-08T19:15:57.357Z,1.63
2022-11-08T19:18:25.501Z,2.97
2022-11-08T19:20:57.321Z,1.83
2022-11-08T19:23:25.845Z,1.70
2022-11-08T19:25:59.354Z,3.40
2022-11-08T19:28:32.659Z,2.80
2022-11-08T19:31:01.018Z,3.23
2022-11-08T19:33:30.875Z,6.43
2022-11-08T19:36:02.016Z,3.17
2022-11-08T19:38:29.776Z,3.77
2022-11-08T19:41:02.113Z,2.13
2022-11-08T19:43:30.964Z,2.50
2022-11-08T19:46:03.301Z,2.90
2022-11-08T19:48:32.790Z,2.57
2022-11-08T19:51:02.727Z,2.13
2022-11-08T19:53:30.741Z,2.37
2022-11-08T19:56:05.614Z,2.60
2022-11-08T19:58:34.593Z,1.83
2022-11-08T20:01:07.960Z,1.63
2022-11-08T20:03:36.043Z,3.90
2022-11-08T20:06:03.865Z,3.63
2022-11-08T20:08:32.440Z,2.53
2022-11-08T20:11:00.253Z,5.10
2022-11-08T20:13:29.375Z,1.20
2022-11-08T20:16:08.690Z,2.37
2022-11-08T20:18:36.439Z,2.90
2022-11-08T20:21:05.534Z,3.87
2022-11-08T20:23:33.477Z,1.97
2022-11-08T20:26:01.884Z,2.67
2022-11-08T20:28:31.157Z,2.80
2022-11-08T20:31:03.419Z,2.07
2022-11-08T20:33:34.091Z,2.43
2022-11-08T20:36:04.879Z,2.17
2022-11-08T20:38:33.931Z,2.50
2022-11-08T20:41:02.036Z,1.97
2022-11-08T20:43:31.728Z,3.90
2022-11-08T20:46:02.757Z,1.90
2022-11-08T20:48:30.520Z,3.13
2022-11-08T20:50:59.696Z,1.87
2022-11-08T20:53:27.971Z,1.60
2022-11-08T20:55:58.794Z,1.60
2022-11-08T20:58:27.503Z,2.33
2022-11-08T21:00:58.582Z,4.47
2022-11-08T21:03:27.929Z,2.80
2022-11-08T21:05:57.943Z,3.90
2022-11-08T21:08:58.705Z,2.50
2022-11-08T21:11:15.268Z,2.13
2022-11-08T21:13:44.656Z,1.97
2022-11-08T21:16:42.280Z,2.40
2022-11-08T21:19:04.331Z,3.93
2022-11-08T21:21:33.065Z,2.50
2022-11-08T21:24:01.009Z,2.30
2022-11-08T21:26:28.748Z,3.37
2022-11-08T21:28:56.489Z,2.77
2022-11-08T21:31:25.650Z,2.30
2022-11-08T21:33:53.536Z,2.77
2022-11-08T21:36:23.193Z,6.30
2022-11-08T21:38:50.901Z,3.33
2022-11-08T21:41:19.841Z,3.53
2022-11-08T21:43:47.739Z,2.13
2022-11-08T21:46:18.113Z,1.80
2022-11-08T21:48:47.605Z,3.13
2022-11-08T21:51:16.123Z,3.53
2022-11-08T21:53:53.601Z,3.10
2022-11-08T21:56:22.410Z,2.73
2022-11-08T21:58:50.178Z,2.17
2022-11-08T22:01:18.344Z,3.30
2022-11-08T22:03:47.920Z,1.63
2022-11-08T22:06:15.759Z,1.83
2022-11-08T22:08:43.584Z,1.80
2022-11-08T22:11:11.317Z,1.40
2022-11-08T22:13:39.074Z,2.90
2022-11-08T22:16:07.204Z,3.27
2022-11-08T22:19:04.061Z,1.80
2022-11-08T22:21:40.284Z,2.30
2022-11-08T22:24:11.099Z,2.90
2022-11-08T22:26:39.158Z,1.63
2022-11-08T22:29:07.360Z,2.53
2022-11-08T22:31:35.650Z,2.10
2022-11-08T22:34:03.854Z,3.53
2022-11-08T22:36:33.044Z,3.23
2022-11-08T22:39:01.204Z,3.30
2022-11-08T22:41:29.017Z,3.43
2022-11-08T22:43:56.824Z,1.40
2022-11-08T22:46:24.749Z,2.27
2022-11-08T22:48:52.450Z,1.77
2022-11-08T22:51:20.186Z,2.00
2022-11-08T22:53:49.576Z,2.20
2022-11-08T22:56:17.410Z,2.40
2022-11-08T22:58:45.168Z,2.40
2022-11-08T23:01:14.124Z,2.37
2022-11-08T23:03:44.917Z,2.20
2022-11-08T23:06:12.976Z,2.80
2022-11-08T23:08:40.771Z,2.87
2022-11-08T23:15:15.462Z,1.57
2022-11-08T23:17:43.178Z,3.87
2022-11-08T23:20:29.053Z,2.57
2022-11-08T23:23:14.448Z,3.20
2022-11-08T23:25:42.194Z,2.30
2022-11-08T23:28:27.599Z,2.23
2022-11-08T23:31:19.727Z,3.07
2022-11-08T23:33:47.439Z,1.50
2022-11-08T23:36:15.909Z,3.20
2022-11-08T23:38:44.352Z,1.33
2022-11-08T23:41:38.337Z,2.20
2022-11-08T23:44:27.725Z,2.17
2022-11-08T23:46:58.531Z,2.20
2022-11-08T23:49:26.772Z,2.90
2022-11-08T23:51:55.132Z,2.60
2022-11-08T23:54:23.124Z,3.10
2022-11-08T23:56:51.955Z,1.80
2022-11-08T23:59:19.705Z,1.40
